sensor_id;sensor_type;location;lat;lon;timestamp;P1;durP1;ratioP1;P2;durP2;ratioP2
8594;SDS011;4335;48.860;9.198;2022-12-05T00:01:40;16.77;;;9.73;;
8594;SDS011;4335;48.860;9.198;2022-12-05T00:04:13;15.90;;;10.43;;
8594;SDS011;4335;48.860;9.198;2022-12-05T00:06:43;12.67;;;8.87;;
8594;SDS011;4335;48.860;9.198;2022-12-05T00:09:11;16.50;;;10.40;;
8594;SDS011;4335;48.860;9.198;2022-12-05T00:11:42;12.70;;;9.30;;
8594;SDS011;4335;48.860;9.198;2022-12-05T00:14:12;15.90;;;9.93;;
8594;SDS011;4335;48.860;9.198;2022-12-05T00:16:43;13.87;;;9.40;;
8594;SDS011;4335;48.860;9.198;2022-12-05T00:19:11;15.40;;;9.40;;
8594;SDS011;4335;48.860;9.198;2022-12-05T00:21:40;15.07;;;10.20;;
8594;SDS011;4335;48.860;9.198;2022-12-05T00:24:11;14.87;;;9.60;;
8594;SDS011;4335;48.860;9.198;2022-12-05T00:26:40;15.47;;;9.50;;
8594;SDS011;4335;48.860;9.198;2022-12-05T00:29:08;15.70;;;9.80;;
8594;SDS011;4335;48.860;9.198;2022-12-05T00:31:39;14.90;;;9.47;;
8594;SDS011;4335;48.860;9.198;2022-12-05T00:34:07;17.13;;;10.83;;
8594;SDS011;4335;48.860;9.198;2022-12-05T00:36:37;15.07;;;9.33;;
8594;SDS011;4335;48.860;9.198;2022-12-05T00:39:06;15.87;;;9.57;;
8594;SDS011;4335;48.860;9.198;2022-12-05T00:41:41;13.77;;;9.23;;
8594;SDS011;4335;48.860;9.198;2022-12-05T00:44:09;15.07;;;10.27;;
8594;SDS011;4335;48.860;9.198;2022-12-05T00:46:40;13.53;;;9.40;;
8594;SDS011;4335;48.860;9.198;2022-12-05T00:49:09;16.90;;;10.00;;
8594;SDS011;4335;48.860;9.198;2022-12-05T00:51:37;14.10;;;8.93;;
8594;SDS011;4335;48.860;9.198;2022-12-05T00:54:07;16.83;;;9.40;;
8594;SDS011;4335;48.860;9.198;2022-12-05T00:56:36;13.77;;;9.27;;
8594;SDS011;4335;48.860;9.198;2022-12-05T00:59:03;14.97;;;9.20;;
8594;SDS011;4335;48.860;9.198;2022-12-05T01:01:42;15.60;;;10.10;;
8594;SDS011;4335;48.860;9.198;2022-12-05T01:04:14;14.97;;;9.83;;
8594;SDS011;4335;48.860;9.198;2022-12-05T01:06:42;16.80;;;10.47;;
8594;SDS011;4335;48.860;9.198;2022-12-05T01:09:17;15.10;;;10.47;;
8594;SDS011;4335;48.860;9.198;2022-12-05T01:11:52;15.67;;;10.53;;
8594;SDS011;4335;48.860;9.198;2022-12-05T01:14:21;13.93;;;10.23;;
8594;SDS011;4335;48.860;9.198;2022-12-05T01:16:52;16.13;;;9.10;;
8594;SDS011;4335;48.860;9.198;2022-12-05T01:19:22;16.17;;;10.67;;
8594;SDS011;4335;48.860;9.198;2022-12-05T01:21:50;16.93;;;9.93;;
8594;SDS011;4335;48.860;9.198;2022-12-05T01:24:18;17.93;;;10.63;;
8594;SDS011;4335;48.860;9.198;2022-12-05T01:26:49;19.33;;;11.70;;
8594;SDS011;4335;48.860;9.198;2022-12-05T01:29:18;15.47;;;9.53;;
8594;SDS011;4335;48.860;9.198;2022-12-05T01:31:47;20.03;;;10.60;;
8594;SDS011;4335;48.860;9.198;2022-12-05T01:34:19;20.10;;;11.03;;
8594;SDS011;4335;48.860;9.198;2022-12-05T01:36:47;19.27;;;10.87;;
8594;SDS011;4335;48.860;9.198;2022-12-05T01:39:14;16.70;;;10.63;;
8594;SDS011;4335;48.860;9.198;2022-12-05T01:41:42;18.00;;;10.83;;
8594;SDS011;4335;48.860;9.198;2022-12-05T01:47:16;16.00;;;10.17;;
8594;SDS011;4335;48.860;9.198;2022-12-05T01:49:46;15.80;;;9.73;;
8594;SDS011;4335;48.860;9.198;2022-12-05T01:52:20;16.73;;;9.80;;
8594;SDS011;4335;48.860;9.198;2022-12-05T01:54:53;16.93;;;11.03;;
8594;SDS011;4335;48.860;9.198;2022-12-05T01:57:22;16.40;;;10.17;;
8594;SDS011;4335;48.860;9.198;2022-12-05T01:59:57;15.67;;;9.87;;
8594;SDS011;4335;48.860;9.198;2022-12-05T02:02:26;20.90;;;10.77;;
8594;SDS011;4335;48.860;9.198;2022-12-05T02:04:57;17.40;;;9.90;;
8594;SDS011;4335;48.860;9.198;2022-12-05T02:07:29;17.97;;;10.30;;
8594;SDS011;4335;48.860;9.198;2022-12-05T02:10:04;14.93;;;9.73;;
8594;SDS011;4335;48.860;9.198;2022-12-05T02:12:32;15.70;;;9.80;;
8594;SDS011;4335;48.860;9.198;2022-12-05T02:15:07;16.37;;;9.67;;
8594;SDS011;4335;48.860;9.198;2022-12-05T02:17:46;15.13;;;9.90;;
8594;SDS011;4335;48.860;9.198;2022-12-05T02:20:31;15.27;;;9.13;;
8594;SDS011;4335;48.860;9.198;2022-12-05T02:32:55;15.90;;;9.60;;
8594;SDS011;4335;48.860;9.198;2022-12-05T02:35:36;12.67;;;8.77;;
8594;SDS011;4335;48.860;9.198;2022-12-05T02:38:19;14.60;;;8.87;;
8594;SDS011;4335;48.860;9.198;2022-12-05T02:40:57;14.27;;;8.47;;
8594;SDS011;4335;48.860;9.198;2022-12-05T02:43:37;15.57;;;9.50;;
8594;SDS011;4335;48.860;9.198;2022-12-05T02:46:09;15.83;;;10.07;;
8594;SDS011;4335;48.860;9.198;2022-12-05T02:48:44;15.40;;;10.03;;
8594;SDS011;4335;48.860;9.198;2022-12-05T02:51:17;14.13;;;9.13;;
8594;SDS011;4335;48.860;9.198;2022-12-05T02:53:50;13.17;;;8.57;;
8594;SDS011;4335;48.860;9.198;2022-12-05T02:56:22;15.90;;;9.80;;
8594;SDS011;4335;48.860;9.198;2022-12-05T02:58:52;14.93;;;9.07;;
8594;SDS011;4335;48.860;9.198;2022-12-05T03:01:25;12.40;;;8.93;;
8594;SDS011;4335;48.860;9.198;2022-12-05T03:03:57;13.10;;;7.87;;
8594;SDS011;4335;48.860;9.198;2022-12-05T03:06:27;13.50;;;8.33;;
8594;SDS011;4335;48.860;9.198;2022-12-05T03:08:59;10.63;;;7.60;;
8594;SDS011;4335;48.860;9.198;2022-12-05T03:11:31;13.33;;;7.83;;
8594;SDS011;4335;48.860;9.198;2022-12-05T03:14:02;12.10;;;7.60;;
8594;SDS011;4335;48.860;9.198;2022-12-05T03:16:40;12.53;;;7.83;;
8594;SDS011;4335;48.860;9.198;2022-12-05T03:19:13;13.33;;;8.50;;
8594;SDS011;4335;48.860;9.198;2022-12-05T03:21:50;13.73;;;8.47;;
8594;SDS011;4335;48.860;9.198;2022-12-05T03:24:20;13.53;;;9.57;;
8594;SDS011;4335;48.860;9.198;2022-12-05T03:26:52;12.70;;;8.37;;
8594;SDS011;4335;48.860;9.198;2022-12-05T03:29:41;13.37;;;8.77;;
8594;SDS011;4335;48.860;9.198;2022-12-05T03:32:17;10.53;;;8.10;;
8594;SDS011;4335;48.860;9.198;2022-12-05T03:34:54;15.23;;;9.63;;
8594;SDS011;4335;48.860;9.198;2022-12-05T03:37:41;13.90;;;9.03;;
8594;SDS011;4335;48.860;9.198;2022-12-05T03:40:17;14.67;;;9.17;;
8594;SDS011;4335;48.860;9.198;2022-12-05T03:43:05;12.90;;;8.27;;
8594;SDS011;4335;48.860;9.198;2022-12-05T03:45:38;13.77;;;8.63;;
8594;SDS011;4335;48.860;9.198;2022-12-05T03:48:13;19.87;;;9.00;;
8594;SDS011;4335;48.860;9.198;2022-12-05T03:50:46;12.27;;;8.00;;
8594;SDS011;4335;48.860;9.198;2022-12-05T03:53:16;16.67;;;8.90;;
8594;SDS011;4335;48.860;9.198;2022-12-05T03:55:54;13.33;;;8.60;;
8594;SDS011;4335;48.860;9.198;2022-12-05T03:58:40;12.77;;;8.00;;
8594;SDS011;4335;48.860;9.198;2022-12-05T04:01:11;13.63;;;7.97;;
8594;SDS011;4335;48.860;9.198;2022-12-05T04:03:44;16.23;;;8.87;;
8594;SDS011;4335;48.860;9.198;2022-12-05T04:06:19;13.53;;;8.17;;
8594;SDS011;4335;48.860;9.198;2022-12-05T04:08:53;14.43;;;8.97;;
8594;SDS011;4335;48.860;9.198;2022-12-05T04:11:26;12.57;;;8.97;;
8594;SDS011;4335;48.860;9.198;2022-12-05T04:13:58;12.93;;;8.63;;
8594;SDS011;4335;48.860;9.198;2022-12-05T04:16:32;16.97;;;10.07;;
8594;SDS011;4335;48.860;9.198;2022-12-05T04:19:21;14.53;;;8.13;;
8594;SDS011;4335;48.860;9.198;2022-12-05T04:21:55;14.43;;;8.70;;
8594;SDS011;4335;48.860;9.198;2022-12-05T04:24:22;14.60;;;8.30;;
8594;SDS011;4335;48.860;9.198;2022-12-05T04:27:19;15.83;;;9.03;;
8594;SDS011;4335;48.860;9.198;2022-12-05T04:29:55;12.13;;;8.13;;
8594;SDS011;4335;48.860;9.198;2022-12-05T04:32:29;15.83;;;9.37;;
8594;SDS011;4335;48.860;9.198;2022-12-05T04:35:08;12.80;;;8.37;;
8594;SDS011;4335;48.860;9.198;2022-12-05T04:37:44;14.73;;;9.10;;
8594;SDS011;4335;48.860;9.198;2022-12-05T04:40:18;16.10;;;9.43;;
8594;SDS011;4335;48.860;9.198;2022-12-05T04:42:50;16.73;;;8.83;;
8594;SDS011;4335;48.860;9.198;2022-12-05T04:45:22;15.93;;;9.77;;
8594;SDS011;4335;48.860;9.198;2022-12-05T04:47:52;14.67;;;8.80;;
8594;SDS011;4335;48.860;9.198;2022-12-05T04:50:26;12.10;;;8.40;;
8594;SDS011;4335;48.860;9.198;2022-12-05T04:52:57;14.70;;;8.03;;
8594;SDS011;4335;48.860;9.198;2022-12-05T04:55:26;12.83;;;9.00;;
8594;SDS011;4335;48.860;9.198;2022-12-05T04:57:58;16.73;;;9.43;;
8594;SDS011;4335;48.860;9.198;2022-12-05T05:00:33;14.00;;;9.10;;
8594;SDS011;4335;48.860;9.198;2022-12-05T05:03:07;15.87;;;9.93;;
8594;SDS011;4335;48.860;9.198;2022-12-05T05:05:45;13.63;;;9.00;;
8594;SDS011;4335;48.860;9.198;2022-12-05T05:08:19;14.73;;;9.37;;
8594;SDS011;4335;48.860;9.198;2022-12-05T05:10:53;16.07;;;8.97;;
8594;SDS011;4335;48.860;9.198;2022-12-05T05:13:35;15.23;;;8.60;;
8594;SDS011;4335;48.860;9.198;2022-12-05T05:16:03;12.97;;;8.40;;
8594;SDS011;4335;48.860;9.198;2022-12-05T05:18:31;13.10;;;8.80;;
8594;SDS011;4335;48.860;9.198;2022-12-05T05:20:58;13.67;;;8.60;;
8594;SDS011;4335;48.860;9.198;2022-12-05T05:23:30;24.27;;;12.77;;
8594;SDS011;4335;48.860;9.198;2022-12-05T05:25:57;17.90;;;9.80;;
8594;SDS011;4335;48.860;9.198;2022-12-05T05:28:25;14.17;;;8.67;;
8594;SDS011;4335;48.860;9.198;2022-12-05T05:30:52;13.53;;;8.67;;
8594;SDS011;4335;48.860;9.198;2022-12-05T05:33:20;13.37;;;9.13;;
8594;SDS011;4335;48.860;9.198;2022-12-05T05:35:53;14.40;;;9.67;;
8594;SDS011;4335;48.860;9.198;2022-12-05T05:38:22;13.87;;;9.37;;
8594;SDS011;4335;48.860;9.198;2022-12-05T05:40:51;14.27;;;8.63;;
8594;SDS011;4335;48.860;9.198;2022-12-05T05:43:22;15.20;;;10.20;;
8594;SDS011;4335;48.860;9.198;2022-12-05T05:45:49;15.50;;;9.40;;
8594;SDS011;4335;48.860;9.198;2022-12-05T05:48:16;19.13;;;11.03;;
8594;SDS011;4335;48.860;9.198;2022-12-05T05:50:44;16.57;;;9.30;;
8594;SDS011;4335;48.860;9.198;2022-12-05T05:53:17;15.77;;;9.90;;
8594;SDS011;4335;48.860;9.198;2022-12-05T05:55:44;14.53;;;8.57;;
8594;SDS011;4335;48.860;9.198;2022-12-05T05:58:16;16.53;;;8.90;;
8594;SDS011;4335;48.860;9.198;2022-12-05T06:00:43;17.83;;;9.50;;
8594;SDS011;4335;48.860;9.198;2022-12-05T06:03:14;15.50;;;9.67;;
8594;SDS011;4335;48.860;9.198;2022-12-05T06:05:41;18.13;;;10.47;;
8594;SDS011;4335;48.860;9.198;2022-12-05T06:08:11;16.43;;;10.43;;
8594;SDS011;4335;48.860;9.198;2022-12-05T06:10:39;16.07;;;9.47;;
8594;SDS011;4335;48.860;9.198;2022-12-05T06:13:06;14.00;;;9.20;;
8594;SDS011;4335;48.860;9.198;2022-12-05T06:15:35;17.93;;;9.70;;
8594;SDS011;4335;48.860;9.198;2022-12-05T06:18:03;16.23;;;9.67;;
8594;SDS011;4335;48.860;9.198;2022-12-05T06:20:30;20.30;;;10.63;;
8594;SDS011;4335;48.860;9.198;2022-12-05T06:22:57;17.33;;;9.90;;
8594;SDS011;4335;48.860;9.198;2022-12-05T06:25:25;17.57;;;9.70;;
8594;SDS011;4335;48.860;9.198;2022-12-05T06:27:54;16.80;;;10.63;;
8594;SDS011;4335;48.860;9.198;2022-12-05T06:30:22;16.67;;;9.60;;
8594;SDS011;4335;48.860;9.198;2022-12-05T06:32:53;15.20;;;8.97;;
8594;SDS011;4335;48.860;9.198;2022-12-05T06:35:21;18.87;;;10.80;;
8594;SDS011;4335;48.860;9.198;2022-12-05T06:37:51;14.40;;;9.97;;
8594;SDS011;4335;48.860;9.198;2022-12-05T06:40:24;14.77;;;9.57;;
8594;SDS011;4335;48.860;9.198;2022-12-05T06:43:01;19.17;;;10.10;;
8594;SDS011;4335;48.860;9.198;2022-12-05T06:45:28;16.20;;;10.60;;
8594;SDS011;4335;48.860;9.198;2022-12-05T06:47:57;15.67;;;8.67;;
8594;SDS011;4335;48.860;9.198;2022-12-05T06:50:25;14.17;;;10.03;;
8594;SDS011;4335;48.860;9.198;2022-12-05T06:52:52;16.33;;;10.93;;
8594;SDS011;4335;48.860;9.198;2022-12-05T06:55:26;17.17;;;10.07;;
8594;SDS011;4335;48.860;9.198;2022-12-05T06:57:53;19.47;;;12.50;;
8594;SDS011;4335;48.860;9.198;2022-12-05T07:00:20;15.60;;;10.33;;
8594;SDS011;4335;48.860;9.198;2022-12-05T07:03:17;14.97;;;9.83;;
8594;SDS011;4335;48.860;9.198;2022-12-05T07:05:45;16.37;;;10.13;;
8594;SDS011;4335;48.860;9.198;2022-12-05T07:08:12;18.77;;;10.50;;
8594;SDS011;4335;48.860;9.198;2022-12-05T07:10:39;14.60;;;9.60;;
8594;SDS011;4335;48.860;9.198;2022-12-05T07:13:15;20.13;;;10.27;;
8594;SDS011;4335;48.860;9.198;2022-12-05T07:15:52;17.23;;;9.27;;
8594;SDS011;4335;48.860;9.198;2022-12-05T07:18:20;19.70;;;10.20;;
8594;SDS011;4335;48.860;9.198;2022-12-05T07:20:54;16.27;;;10.27;;
8594;SDS011;4335;48.860;9.198;2022-12-05T07:23:22;16.67;;;9.67;;
8594;SDS011;4335;48.860;9.198;2022-12-05T07:25:52;18.53;;;10.33;;
8594;SDS011;4335;48.860;9.198;2022-12-05T07:28:19;17.20;;;9.90;;
8594;SDS011;4335;48.860;9.198;2022-12-05T07:30:47;17.23;;;10.40;;
8594;SDS011;4335;48.860;9.198;2022-12-05T07:33:22;16.33;;;9.83;;
8594;SDS011;4335;48.860;9.198;2022-12-05T07:35:52;16.27;;;10.23;;
8594;SDS011;4335;48.860;9.198;2022-12-05T07:38:24;15.27;;;8.97;;
8594;SDS011;4335;48.860;9.198;2022-12-05T07:40:53;16.20;;;10.13;;
8594;SDS011;4335;48.860;9.198;2022-12-05T07:43:21;15.67;;;9.00;;
8594;SDS011;4335;48.860;9.198;2022-12-05T07:45:48;12.57;;;8.50;;
8594;SDS011;4335;48.860;9.198;2022-12-05T07:48:18;15.50;;;9.07;;
8594;SDS011;4335;48.860;9.198;2022-12-05T07:50:50;12.50;;;8.70;;
8594;SDS011;4335;48.860;9.198;2022-12-05T07:53:18;16.53;;;10.20;;
8594;SDS011;4335;48.860;9.198;2022-12-05T07:55:46;17.57;;;11.03;;
8594;SDS011;4335;48.860;9.198;2022-12-05T07:58:13;16.60;;;9.23;;
8594;SDS011;4335;48.860;9.198;2022-12-05T08:00:40;15.53;;;9.77;;
8594;SDS011;4335;48.860;9.198;2022-12-05T08:03:08;11.20;;;8.30;;
8594;SDS011;4335;48.860;9.198;2022-12-05T08:05:35;15.87;;;9.00;;
8594;SDS011;4335;48.860;9.198;2022-12-05T08:08:04;13.60;;;9.30;;
8594;SDS011;4335;48.860;9.198;2022-12-05T08:10:41;19.00;;;9.47;;
8594;SDS011;4335;48.860;9.198;2022-12-05T08:13:08;15.10;;;9.67;;
8594;SDS011;4335;48.860;9.198;2022-12-05T08:15:38;15.27;;;9.57;;
8594;SDS011;4335;48.860;9.198;2022-12-05T08:18:09;16.23;;;9.77;;
8594;SDS011;4335;48.860;9.198;2022-12-05T08:20:36;12.40;;;9.17;;
8594;SDS011;4335;48.860;9.198;2022-12-05T08:23:05;15.20;;;9.90;;
8594;SDS011;4335;48.860;9.198;2022-12-05T08:25:32;14.40;;;8.83;;
8594;SDS011;4335;48.860;9.198;2022-12-05T08:28:00;13.33;;;8.97;;
8594;SDS011;4335;48.860;9.198;2022-12-05T08:30:27;12.67;;;9.00;;
8594;SDS011;4335;48.860;9.198;2022-12-05T08:32:54;14.77;;;9.00;;
8594;SDS011;4335;48.860;9.198;2022-12-05T08:35:22;14.30;;;9.40;;
8594;SDS011;4335;48.860;9.198;2022-12-05T08:37:52;15.53;;;9.77;;
8594;SDS011;4335;48.860;9.198;2022-12-05T08:40:27;13.97;;;8.77;;
8594;SDS011;4335;48.860;9.198;2022-12-05T08:42:55;15.13;;;9.70;;
8594;SDS011;4335;48.860;9.198;2022-12-05T08:45:23;14.43;;;9.03;;
8594;SDS011;4335;48.860;9.198;2022-12-05T08:47:50;12.83;;;9.00;;
8594;SDS011;4335;48.860;9.198;2022-12-05T08:50:18;12.87;;;9.07;;
8594;SDS011;4335;48.860;9.198;2022-12-05T08:52:45;15.40;;;10.93;;
8594;SDS011;4335;48.860;9.198;2022-12-05T08:55:13;16.57;;;9.37;;
8594;SDS011;4335;48.860;9.198;2022-12-05T08:57:42;12.43;;;9.27;;
8594;SDS011;4335;48.860;9.198;2022-12-05T09:00:09;12.93;;;9.60;;
8594;SDS011;4335;48.860;9.198;2022-12-05T09:02:37;16.33;;;9.13;;
8594;SDS011;4335;48.860;9.198;2022-12-05T09:05:06;12.67;;;8.67;;
8594;SDS011;4335;48.860;9.198;2022-12-05T09:07:34;17.07;;;9.17;;
8594;SDS011;4335;48.860;9.198;2022-12-05T09:10:01;21.07;;;14.57;;
8594;SDS011;4335;48.860;9.198;2022-12-05T09:12:29;19.03;;;13.03;;
8594;SDS011;4335;48.860;9.198;2022-12-05T09:14:58;14.20;;;9.77;;
8594;SDS011;4335;48.860;9.198;2022-12-05T09:17:25;16.10;;;8.97;;
8594;SDS011;4335;48.860;9.198;2022-12-05T09:19:53;12.17;;;8.73;;
8594;SDS011;4335;48.860;9.198;2022-12-05T09:22:20;16.57;;;9.23;;
8594;SDS011;4335;48.860;9.198;2022-12-05T09:24:50;14.57;;;8.37;;
8594;SDS011;4335;48.860;9.198;2022-12-05T09:27:18;13.17;;;8.77;;
8594;SDS011;4335;48.860;9.198;2022-12-05T09:29:45;12.83;;;8.57;;
8594;SDS011;4335;48.860;9.198;2022-12-05T09:32:14;16.60;;;8.97;;
8594;SDS011;4335;48.860;9.198;2022-12-05T09:34:41;13.03;;;8.87;;
8594;SDS011;4335;48.860;9.198;2022-12-05T09:37:15;12.13;;;8.27;;
8594;SDS011;4335;48.860;9.198;2022-12-05T09:39:44;13.53;;;7.97;;
8594;SDS011;4335;48.860;9.198;2022-12-05T09:42:18;13.00;;;8.17;;
8594;SDS011;4335;48.860;9.198;2022-12-05T09:45:17;15.37;;;8.53;;
8594;SDS011;4335;48.860;9.198;2022-12-05T09:47:56;10.47;;;8.37;;
8594;SDS011;4335;48.860;9.198;2022-12-05T09:50:27;12.63;;;8.13;;
8594;SDS011;4335;48.860;9.198;2022-12-05T09:55:48;13.37;;;8.33;;
8594;SDS011;4335;48.860;9.198;2022-12-05T09:58:20;15.77;;;9.30;;
8594;SDS011;4335;48.860;9.198;2022-12-05T10:00:53;14.47;;;9.10;;
8594;SDS011;4335;48.860;9.198;2022-12-05T10:03:27;11.30;;;8.40;;
8594;SDS011;4335;48.860;9.198;2022-12-05T10:06:05;12.60;;;8.13;;
8594;SDS011;4335;48.860;9.198;2022-12-05T10:08:41;12.17;;;8.63;;
8594;SDS011;4335;48.860;9.198;2022-12-05T10:11:24;12.20;;;8.33;;
8594;SDS011;4335;48.860;9.198;2022-12-05T10:14:00;14.97;;;9.90;;
8594;SDS011;4335;48.860;9.198;2022-12-05T10:16:37;11.57;;;8.30;;
8594;SDS011;4335;48.860;9.198;2022-12-05T10:19:14;13.30;;;9.47;;
8594;SDS011;4335;48.860;9.198;2022-12-05T10:21:48;11.40;;;8.17;;
8594;SDS011;4335;48.860;9.198;2022-12-05T10:24:28;11.33;;;8.43;;
8594;SDS011;4335;48.860;9.198;2022-12-05T10:27:01;11.77;;;8.67;;
8594;SDS011;4335;48.860;9.198;2022-12-05T10:29:32;12.97;;;7.97;;
8594;SDS011;4335;48.860;9.198;2022-12-05T10:32:04;10.53;;;8.47;;
8594;SDS011;4335;48.860;9.198;2022-12-05T10:34:44;13.20;;;9.13;;
8594;SDS011;4335;48.860;9.198;2022-12-05T10:37:13;11.50;;;8.77;;
8594;SDS011;4335;48.860;9.198;2022-12-05T10:39:42;15.73;;;9.73;;
8594;SDS011;4335;48.860;9.198;2022-12-05T10:42:11;15.07;;;9.33;;
8594;SDS011;4335;48.860;9.198;2022-12-05T10:44:48;16.23;;;9.10;;
8594;SDS011;4335;48.860;9.198;2022-12-05T10:47:16;12.67;;;9.00;;
8594;SDS011;4335;48.860;9.198;2022-12-05T10:49:46;14.70;;;9.53;;
8594;SDS011;4335;48.860;9.198;2022-12-05T10:52:15;10.13;;;8.17;;
8594;SDS011;4335;48.860;9.198;2022-12-05T10:54:43;14.13;;;8.93;;
8594;SDS011;4335;48.860;9.198;2022-12-05T10:57:24;11.80;;;8.67;;
8594;SDS011;4335;48.860;9.198;2022-12-05T10:59:52;11.57;;;8.63;;
8594;SDS011;4335;48.860;9.198;2022-12-05T11:02:22;14.03;;;8.93;;
8594;SDS011;4335;48.860;9.198;2022-12-05T11:04:53;11.83;;;8.63;;
8594;SDS011;4335;48.860;9.198;2022-12-05T11:07:23;12.43;;;7.63;;
8594;SDS011;4335;48.860;9.198;2022-12-05T11:09:55;11.87;;;8.53;;
8594;SDS011;4335;48.860;9.198;2022-12-05T11:12:23;12.03;;;8.77;;
8594;SDS011;4335;48.860;9.198;2022-12-05T11:15:00;11.27;;;7.77;;
8594;SDS011;4335;48.860;9.198;2022-12-05T11:17:33;12.20;;;8.10;;
8594;SDS011;4335;48.860;9.198;2022-12-05T11:20:32;9.97;;;7.73;;
8594;SDS011;4335;48.860;9.198;2022-12-05T11:23:16;15.03;;;9.33;;
8594;SDS011;4335;48.860;9.198;2022-12-05T11:25:52;12.97;;;8.70;;
8594;SDS011;4335;48.860;9.198;2022-12-05T11:28:27;12.87;;;8.70;;
8594;SDS011;4335;48.860;9.198;2022-12-05T11:31:01;10.70;;;7.97;;
8594;SDS011;4335;48.860;9.198;2022-12-05T11:33:31;11.20;;;7.50;;
8594;SDS011;4335;48.860;9.198;2022-12-05T11:36:02;12.17;;;8.23;;
8594;SDS011;4335;48.860;9.198;2022-12-05T11:38:47;11.33;;;8.70;;
8594;SDS011;4335;48.860;9.198;2022-12-05T11:41:24;18.00;;;10.90;;
8594;SDS011;4335;48.860;9.198;2022-12-05T11:44:22;14.47;;;8.87;;
8594;SDS011;4335;48.860;9.198;2022-12-05T11:47:06;16.20;;;11.80;;
8594;SDS011;4335;48.860;9.198;2022-12-05T11:49:52;14.70;;;9.57;;
8594;SDS011;4335;48.860;9.198;2022-12-05T11:52:46;10.33;;;7.20;;
8594;SDS011;4335;48.860;9.198;2022-12-05T11:55:23;10.33;;;7.20;;
8594;SDS011;4335;48.860;9.198;2022-12-05T11:58:00;8.17;;;6.70;;
8594;SDS011;4335;48.860;9.198;2022-12-05T12:00:42;8.03;;;6.03;;
8594;SDS011;4335;48.860;9.198;2022-12-05T12:06:48;11.00;;;6.70;;
8594;SDS011;4335;48.860;9.198;2022-12-05T12:09:31;9.47;;;6.43;;
8594;SDS011;4335;48.860;9.198;2022-12-05T12:12:11;9.63;;;6.87;;
8594;SDS011;4335;48.860;9.198;2022-12-05T12:14:50;8.63;;;7.20;;
8594;SDS011;4335;48.860;9.198;2022-12-05T12:17:24;7.77;;;6.17;;
8594;SDS011;4335;48.860;9.198;2022-12-05T12:20:15;9.23;;;6.13;;
8594;SDS011;4335;48.860;9.198;2022-12-05T12:22:54;7.50;;;5.60;;
8594;SDS011;4335;48.860;9.198;2022-12-05T12:25:49;7.07;;;5.67;;
8594;SDS011;4335;48.860;9.198;2022-12-05T12:28:28;7.13;;;6.17;;
8594;SDS011;4335;48.860;9.198;2022-12-05T12:31:14;8.47;;;6.70;;
8594;SDS011;4335;48.860;9.198;2022-12-05T12:34:03;7.47;;;5.47;;
8594;SDS011;4335;48.860;9.198;2022-12-05T12:36:44;6.97;;;5.33;;
8594;SDS011;4335;48.860;9.198;2022-12-05T12:39:17;6.10;;;5.07;;
8594;SDS011;4335;48.860;9.198;2022-12-05T12:42:07;8.53;;;5.93;;
8594;SDS011;4335;48.860;9.198;2022-12-05T12:44:52;7.57;;;4.70;;
8594;SDS011;4335;48.860;9.198;2022-12-05T12:47:35;6.43;;;5.40;;
8594;SDS011;4335;48.860;9.198;2022-12-05T12:50:15;5.90;;;5.23;;
8594;SDS011;4335;48.860;9.198;2022-12-05T12:52:57;8.23;;;5.63;;
8594;SDS011;4335;48.860;9.198;2022-12-05T12:55:37;6.67;;;5.63;;
8594;SDS011;4335;48.860;9.198;2022-12-05T12:58:15;5.47;;;4.70;;
8594;SDS011;4335;48.860;9.198;2022-12-05T13:00:55;6.43;;;4.80;;
8594;SDS011;4335;48.860;9.198;2022-12-05T13:03:31;8.40;;;5.57;;
8594;SDS011;4335;48.860;9.198;2022-12-05T13:06:11;7.87;;;5.53;;
8594;SDS011;4335;48.860;9.198;2022-12-05T13:08:43;8.57;;;5.73;;
8594;SDS011;4335;48.860;9.198;2022-12-05T13:11:15;7.63;;;6.47;;
8594;SDS011;4335;48.860;9.198;2022-12-05T13:13:47;10.40;;;7.40;;
8594;SDS011;4335;48.860;9.198;2022-12-05T13:16:20;12.30;;;8.67;;
8594;SDS011;4335;48.860;9.198;2022-12-05T13:18:50;12.63;;;9.43;;
8594;SDS011;4335;48.860;9.198;2022-12-05T13:21:21;10.30;;;8.17;;
8594;SDS011;4335;48.860;9.198;2022-12-05T13:23:49;10.57;;;7.63;;
8594;SDS011;4335;48.860;9.198;2022-12-05T13:26:23;11.33;;;7.50;;
8594;SDS011;4335;48.860;9.198;2022-12-05T13:28:53;11.63;;;7.43;;
8594;SDS011;4335;48.860;9.198;2022-12-05T13:34:15;11.57;;;7.47;;
8594;SDS011;4335;48.860;9.198;2022-12-05T13:37:11;8.93;;;7.40;;
8594;SDS011;4335;48.860;9.198;2022-12-05T13:40:06;11.27;;;7.87;;
8594;SDS011;4335;48.860;9.198;2022-12-05T13:43:12;13.03;;;7.90;;
8594;SDS011;4335;48.860;9.198;2022-12-05T13:45:50;11.50;;;8.63;;
8594;SDS011;4335;48.860;9.198;2022-12-05T13:48:32;10.73;;;8.67;;
8594;SDS011;4335;48.860;9.198;2022-12-05T13:51:03;13.30;;;8.83;;
8594;SDS011;4335;48.860;9.198;2022-12-05T13:53:36;13.47;;;8.57;;
8594;SDS011;4335;48.860;9.198;2022-12-05T13:56:21;11.60;;;8.33;;
8594;SDS011;4335;48.860;9.198;2022-12-05T13:58:52;13.00;;;8.67;;
8594;SDS011;4335;48.860;9.198;2022-12-05T14:04:23;14.13;;;9.33;;
8594;SDS011;4335;48.860;9.198;2022-12-05T14:07:35;12.20;;;9.77;;
8594;SDS011;4335;48.860;9.198;2022-12-05T14:10:07;13.53;;;9.43;;
8594;SDS011;4335;48.860;9.198;2022-12-05T14:12:46;11.27;;;9.07;;
8594;SDS011;4335;48.860;9.198;2022-12-05T14:15:25;10.90;;;8.63;;
8594;SDS011;4335;48.860;9.198;2022-12-05T14:17:58;12.13;;;8.77;;
8594;SDS011;4335;48.860;9.198;2022-12-05T14:23:45;10.43;;;7.80;;
8594;SDS011;4335;48.860;9.198;2022-12-05T14:29:18;10.47;;;8.27;;
8594;SDS011;4335;48.860;9.198;2022-12-05T14:32:01;11.63;;;8.37;;
8594;SDS011;4335;48.860;9.198;2022-12-05T14:34:45;12.90;;;8.30;;
8594;SDS011;4335;48.860;9.198;2022-12-05T14:37:23;11.80;;;8.00;;
8594;SDS011;4335;48.860;9.198;2022-12-05T14:39:56;8.97;;;7.73;;
8594;SDS011;4335;48.860;9.198;2022-12-05T14:42:28;12.00;;;8.73;;
8594;SDS011;4335;48.860;9.198;2022-12-05T14:45:16;12.57;;;8.60;;
8594;SDS011;4335;48.860;9.198;2022-12-05T14:47:59;11.90;;;9.00;;
8594;SDS011;4335;48.860;9.198;2022-12-05T14:50:43;11.27;;;8.40;;
8594;SDS011;4335;48.860;9.198;2022-12-05T14:53:21;17.10;;;12.17;;
8594;SDS011;4335;48.860;9.198;2022-12-05T14:56:01;16.97;;;11.87;;
8594;SDS011;4335;48.860;9.198;2022-12-05T14:58:48;11.87;;;8.43;;
8594;SDS011;4335;48.860;9.198;2022-12-05T15:01:20;14.80;;;10.97;;
8594;SDS011;4335;48.860;9.198;2022-12-05T15:03:57;12.57;;;9.30;;
8594;SDS011;4335;48.860;9.198;2022-12-05T15:06:32;11.80;;;9.17;;
8594;SDS011;4335;48.860;9.198;2022-12-05T15:09:03;12.90;;;9.80;;
8594;SDS011;4335;48.860;9.198;2022-12-05T15:11:40;14.10;;;9.50;;
8594;SDS011;4335;48.860;9.198;2022-12-05T15:14:09;11.67;;;9.07;;
8594;SDS011;4335;48.860;9.198;2022-12-05T15:16:44;12.50;;;8.77;;
8594;SDS011;4335;48.860;9.198;2022-12-05T15:19:17;13.63;;;8.97;;
8594;SDS011;4335;48.860;9.198;2022-12-05T15:21:59;14.27;;;8.83;;
8594;SDS011;4335;48.860;9.198;2022-12-05T15:24:35;12.03;;;9.37;;
8594;SDS011;4335;48.860;9.198;2022-12-05T15:27:03;14.73;;;10.13;;
8594;SDS011;4335;48.860;9.198;2022-12-05T15:29:32;15.50;;;10.07;;
8594;SDS011;4335;48.860;9.198;2022-12-05T15:32:00;14.67;;;10.30;;
8594;SDS011;4335;48.860;9.198;2022-12-05T15:34:38;15.03;;;9.73;;
8594;SDS011;4335;48.860;9.198;2022-12-05T15:37:14;12.40;;;9.53;;
8594;SDS011;4335;48.860;9.198;2022-12-05T15:39:53;12.33;;;9.63;;
8594;SDS011;4335;48.860;9.198;2022-12-05T15:42:21;17.73;;;10.43;;
8594;SDS011;4335;48.860;9.198;2022-12-05T15:44:50;10.70;;;8.57;;
8594;SDS011;4335;48.860;9.198;2022-12-05T15:47:18;12.77;;;8.90;;
8594;SDS011;4335;48.860;9.198;2022-12-05T15:49:50;12.20;;;9.13;;
8594;SDS011;4335;48.860;9.198;2022-12-05T15:52:24;12.20;;;9.17;;
8594;SDS011;4335;48.860;9.198;2022-12-05T15:54:57;12.30;;;9.33;;
8594;SDS011;4335;48.860;9.198;2022-12-05T15:57:33;11.63;;;8.67;;
8594;SDS011;4335;48.860;9.198;2022-12-05T16:00:04;12.97;;;9.07;;
8594;SDS011;4335;48.860;9.198;2022-12-05T16:02:35;11.37;;;7.93;;
8594;SDS011;4335;48.860;9.198;2022-12-05T16:05:17;13.70;;;9.47;;
8594;SDS011;4335;48.860;9.198;2022-12-05T16:07:49;16.77;;;10.20;;
8594;SDS011;4335;48.860;9.198;2022-12-05T16:10:18;14.60;;;10.43;;